Time;durP1;ratioP1;P1;durP2;ratioP2;P2;SDS_P1;SDS_P2;PMS_P1;PMS_P2;Temp;Humidity;BMP_temperature;BMP_pressure;BME280_temperature;BME280_humidity;BME280_pressure;Samples;Min_cycle;Max_cycle;Signal;HPM_P1;HPM_P2
2021/08/18 00:01:21;;;;;;;2.57;0.60;;;;;;;17.15;64.23;101593.19;2623585;36;20022;31
2021/08/18 00:03:52;;;;;;;3.23;0.70;;;;;;;17.02;64.04;101576.06;2622337;36;21368;31
2021/08/18 00:06:21;;;;;;;1.35;0.50;;;;;;;16.98;64.31;101572.69;2622348;36;20974;31
2021/08/18 00:08:52;;;;;;;4.17;0.73;;;;;;;16.93;64.46;101577.28;2622361;36;20034;31
2021/08/18 00:11:22;;;;;;;1.67;0.60;;;;;;;17.10;64.28;101595.13;2622713;36;20106;31
2021/08/18 00:13:51;;;;;;;4.95;1.10;;;;;;;17.01;64.36;101590.19;2626509;36;20045;31
2021/08/18 00:16:20;;;;;;;2.40;0.60;;;;;;;16.93;64.68;101571.09;2622958;36;20035;31
2021/08/18 00:18:54;;;;;;;3.67;0.87;;;;;;;16.96;64.42;101586.84;2622466;36;20928;31
2021/08/18 00:21:24;;;;;;;2.37;0.63;;;;;;;16.99;64.83;101592.88;2624332;36;20038;31
2021/08/18 00:23:55;;;;;;;2.67;0.60;;;;;;;16.95;64.90;101585.13;2604180;54;20263;31
2021/08/18 00:26:26;;;;;;;1.55;0.55;;;;;;;16.75;64.87;101554.16;2622447;36;20026;31
2021/08/18 00:28:55;;;;;;;1.67;0.50;;;;;;;16.87;64.87;101572.19;2622318;36;20074;31
2021/08/18 00:31:23;;;;;;;1.20;0.30;;;;;;;16.84;64.90;101570.53;2622547;36;20824;31
2021/08/18 00:33:52;;;;;;;2.60;0.70;;;;;;;16.85;65.40;101569.59;2622753;36;20959;31
2021/08/18 00:36:20;;;;;;;5.40;1.13;;;;;;;16.88;64.97;101579.22;2622377;36;20259;31
2021/08/18 00:38:48;;;;;;;0.90;0.40;;;;;;;16.86;65.31;101576.59;2603582;46;20027;31
2021/08/18 00:41:20;;;;;;;1.40;0.50;;;;;;;16.71;64.57;101549.88;2622760;36;20026;31
2021/08/18 00:43:51;;;;;;;2.25;0.60;;;;;;;16.84;64.63;101567.88;2603686;47;20029;31
2021/08/18 00:46:20;;;;;;;3.73;0.50;;;;;;;16.79;64.96;101569.81;2622975;36;20022;31
2021/08/18 00:48:51;;;;;;;3.03;0.63;;;;;;;16.79;64.68;101564.56;2621785;36;20823;31
2021/08/18 00:51:19;;;;;;;1.23;0.43;;;;;;;16.65;65.15;101545.66;2604098;47;20085;31
2021/08/18 00:53:50;;;;;;;2.25;0.40;;;;;;;16.68;64.98;101542.06;2604391;47;20030;31
2021/08/18 00:56:20;;;;;;;2.13;0.60;;;;;;;16.66;64.83;101552.66;2603373;54;20872;31
2021/08/18 00:58:50;;;;;;;2.22;0.73;;;;;;;16.75;65.13;101570.84;2624624;36;20019;31
2021/08/18 01:01:18;;;;;;;3.15;0.90;;;;;;;16.70;65.17;101564.81;2621941;36;21805;31
2021/08/18 01:03:47;;;;;;;2.97;0.70;;;;;;;16.64;64.88;101553.63;2622104;36;20075;31
2021/08/18 01:06:17;;;;;;;1.43;0.60;;;;;;;16.68;64.63;101557.91;2603097;47;20086;31
2021/08/18 01:08:47;;;;;;;2.65;0.73;;;;;;;16.67;65.15;101564.91;2625507;36;20817;31
2021/08/18 01:11:17;;;;;;;1.50;0.67;;;;;;;16.63;65.21;101546.66;2622250;36;20953;31
2021/08/18 01:13:47;;;;;;;1.73;0.50;;;;;;;16.66;64.79;101550.00;2605485;54;20954;31
2021/08/18 01:16:17;;;;;;;2.23;0.67;;;;;;;16.64;65.19;101546.59;2622200;36;20284;31
2021/08/18 01:18:46;;;;;;;1.60;0.50;;;;;;;16.59;65.46;101535.34;2624061;36;20014;31
2021/08/18 01:21:14;;;;;;;2.43;0.60;;;;;;;16.63;64.97;101542.22;2622566;36;20264;31
2021/08/18 01:23:44;;;;;;;1.05;0.40;;;;;;;16.67;64.99;101542.97;2621707;36;20022;31
2021/08/18 01:26:12;;;;;;;1.88;0.75;;;;;;;16.47;65.20;101526.03;2603718;54;20767;31
2021/08/18 01:28:40;;;;;;;2.97;0.90;;;;;;;16.46;65.32;101526.09;2603581;54;20034;31
2021/08/18 01:31:10;;;;;;;6.30;0.90;;;;;;;16.49;65.40;101528.66;2603216;47;20027;31
2021/08/18 01:33:39;;;;;;;2.10;0.68;;;;;;;16.30;65.62;101508.19;2622642;36;20026;31
2021/08/18 01:36:09;;;;;;;2.70;0.75;;;;;;;16.24;65.60;101511.03;2623107;36;20022;31
2021/08/18 01:38:42;;;;;;;4.78;0.52;;;;;;;16.42;65.53;101542.94;2622179;36;20034;31
2021/08/18 01:41:09;;;;;;;1.60;0.47;;;;;;;16.35;66.43;101535.25;2622926;36;20924;31
2021/08/18 01:43:40;;;;;;;1.35;0.60;;;;;;;16.28;66.13;101528.47;2622925;36;20026;31
2021/08/18 01:46:10;;;;;;;2.35;0.63;;;;;;;16.13;66.18;101502.63;2627011;36;20960;31
2021/08/18 01:48:41;;;;;;;2.75;0.60;;;;;;;16.15;66.48;101507.81;2623824;36;20023;31
2021/08/18 01:51:11;;;;;;;2.38;0.50;;;;;;;16.11;66.33;101500.94;2604124;54;19931;31
2021/08/18 01:53:44;;;;;;;2.15;0.60;;;;;;;16.28;66.44;101530.25;2623284;36;20798;31
2021/08/18 01:56:16;;;;;;;1.80;0.50;;;;;;;16.27;66.80;101524.09;2622879;36;20018;31
2021/08/18 01:58:45;;;;;;;3.00;0.60;;;;;;;16.25;67.08;101520.66;2625158;36;20876;31
2021/08/18 02:01:15;;;;;;;1.23;0.60;;;;;;;16.08;66.83;101492.22;2623167;36;20027;31
2021/08/18 02:03:46;;;;;;;0.90;0.43;;;;;;;16.22;66.39;101507.59;2623025;36;20056;31
2021/08/18 02:06:18;;;;;;;2.42;0.50;;;;;;;16.22;66.92;101512.84;2604384;46;20033;31
2021/08/18 02:08:46;;;;;;;2.25;0.60;;;;;;;16.04;66.62;101484.47;2622728;36;20034;31
2021/08/18 02:11:14;;;;;;;2.63;0.63;;;;;;;16.11;67.25;101504.41;2604810;46;20876;31
2021/08/18 02:16:15;;;;;;;2.75;0.70;;;;;;;16.12;66.67;101506.16;2604179;47;20808;31
2021/08/18 02:18:45;;;;;;;1.97;0.80;;;;;;;16.11;66.69;101501.78;2603943;46;20032;31
2021/08/18 02:21:18;;;;;;;1.90;0.55;;;;;;;15.94;66.53;101472.50;2623089;36;20899;31
2021/08/18 02:23:49;;;;;;;1.88;0.50;;;;;;;15.92;67.08;101458.53;2622534;36;20828;31
2021/08/18 02:26:19;;;;;;;1.63;0.32;;;;;;;16.06;66.85;101487.91;2604768;46;20019;31
2021/08/18 02:28:47;;;;;;;1.45;0.50;;;;;;;15.82;67.02;101455.34;2603735;54;20077;31
2021/08/18 02:31:17;;;;;;;2.13;0.60;;;;;;;15.90;66.94;101470.88;2604749;47;20105;31
2021/08/18 02:33:47;;;;;;;1.52;0.60;;;;;;;15.99;67.02;101492.53;2622847;36;20034;31
2021/08/18 02:36:15;;;;;;;1.25;0.40;;;;;;;15.70;66.95;101443.41;2622782;36;20023;31
2021/08/18 02:38:43;;;;;;;2.00;0.60;;;;;;;15.86;67.11;101470.09;2625100;36;20028;31
2021/08/18 02:43:43;;;;;;;2.50;0.50;;;;;;;15.88;67.04;101472.72;2603902;54;20280;31
2021/08/18 02:46:13;;;;;;;1.80;0.65;;;;;;;15.87;67.54;101476.28;2622703;36;20239;31
2021/08/18 02:48:41;;;;;;;2.30;0.50;;;;;;;15.79;67.34;101468.59;2622600;36;20062;31
2021/08/18 02:51:11;;;;;;;1.17;0.40;;;;;;;15.87;67.52;101485.03;2622457;36;20082;31
2021/08/18 02:53:41;;;;;;;1.23;0.50;;;;;;;15.87;67.60;101476.28;2622794;36;20874;31
2021/08/18 02:56:11;;;;;;;1.42;0.50;;;;;;;15.72;67.29;101452.13;2603727;54;20038;31
2021/08/18 02:58:39;;;;;;;0.80;0.40;;;;;;;15.60;67.42;101434.06;2604655;46;20931;31
2021/08/18 03:01:09;;;;;;;2.33;0.80;;;;;;;15.71;67.67;101460.97;2605876;46;20254;31
2021/08/18 03:03:38;;;;;;;1.27;0.55;;;;;;;15.80;67.89;101471.16;2623043;36;20033;31
2021/08/18 03:06:06;;;;;;;2.20;0.50;;;;;;;15.71;68.01;101445.16;2623085;36;20022;31
2021/08/18 03:08:36;;;;;;;1.88;0.43;;;;;;;15.64;67.61;101438.34;2603938;46;20034;31
2021/08/18 03:11:04;;;;;;;1.83;0.57;;;;;;;15.77;68.13;101465.16;2625309;36;20109;31
2021/08/18 03:13:32;;;;;;;2.28;0.40;;;;;;;15.70;68.02;101453.09;2604075;54;20026;31
2021/08/18 03:16:00;;;;;;;2.35;0.70;;;;;;;15.78;68.27;101457.19;2604542;47;20030;31
2021/08/18 03:18:31;;;;;;;;;;;;;;;15.81;65.99;101446.59;2606100;54;20022;31
2021/08/18 03:21:02;;;;;;;2.90;0.60;;;;;;;15.71;67.82;101434.63;2623059;36;19935;31
2021/08/18 03:23:33;;;;;;;2.97;0.50;;;;;;;15.73;67.51;101438.06;2621493;36;20034;31
2021/08/18 03:26:03;;;;;;;2.13;0.50;;;;;;;15.74;67.77;101431.88;2622234;36;20070;31
2021/08/18 03:28:33;;;;;;;2.33;0.63;;;;;;;15.75;68.04;101424.84;2623996;36;20031;31
2021/08/18 03:31:03;;;;;;;1.30;0.50;;;;;;;15.76;68.18;101431.81;2622217;36;20030;31
2021/08/18 03:33:31;;;;;;;1.70;0.70;;;;;;;15.54;68.42;101389.50;2603897;54;21026;31
2021/08/18 03:36:01;;;;;;;2.75;0.45;;;;;;;15.76;68.60;101422.16;2603927;54;20066;31
2021/08/18 03:38:31;;;;;;;4.47;0.70;;;;;;;15.75;68.03;101423.06;2624553;36;20019;31
2021/08/18 03:41:02;;;;;;;2.30;0.50;;;;;;;15.75;68.24;101422.19;2622278;36;20082;31
2021/08/18 03:43:30;;;;;;;2.83;0.80;;;;;;;15.75;68.53;101425.69;2622384;36;20918;31
2021/08/18 03:46:01;;;;;;;1.73;0.60;;;;;;;15.62;68.45;101390.13;2622001;36;20053;31
2021/08/18 03:48:31;;;;;;;1.35;0.40;;;;;;;15.77;68.22;101413.34;2622552;36;20050;31
2021/08/18 03:51:01;;;;;;;1.88;0.60;;;;;;;15.72;68.41;101406.53;2622480;36;20018;31
2021/08/18 03:53:29;;;;;;;3.30;0.90;;;;;;;15.64;68.49;101395.38;2623632;36;20047;31
2021/08/18 03:55:59;;;;;;;2.45;0.70;;;;;;;15.72;68.13;101407.38;2603444;46;20042;31
2021/08/18 03:58:28;;;;;;;2.23;0.70;;;;;;;15.75;68.09;101424.84;2622078;36;20105;31
2021/08/18 04:00:57;;;;;;;2.23;0.80;;;;;;;15.73;68.26;101417.00;2608598;54;20061;31
2021/08/18 04:03:27;;;;;;;1.67;0.70;;;;;;;15.58;68.06;101399.88;2605663;47;20231;31
2021/08/18 04:05:55;;;;;;;1.50;0.50;;;;;;;15.62;68.58;101400.66;2623734;36;20941;31
2021/08/18 04:08:25;;;;;;;;;;;;;;;15.73;66.41;101411.72;2622612;36;20030;31
2021/08/18 04:14:40;;;;;;;0.80;0.30;;;;;;;15.64;68.49;101405.91;2496201;54;2004725;31
2021/08/18 04:17:11;;;;;;;1.15;0.45;;;;;;;15.54;68.19;101384.22;2626370;36;20785;31
2021/08/18 04:19:41;;;;;;;2.60;0.70;;;;;;;15.69;68.64;101415.34;2610052;54;20054;31
2021/08/18 04:22:09;;;;;;;2.33;0.85;;;;;;;15.54;69.33;101389.50;2621888;36;20082;31
2021/08/18 04:24:39;;;;;;;1.60;0.60;;;;;;;15.54;68.86;101389.50;2603688;46;20090;31
2021/08/18 04:27:09;;;;;;;2.13;0.83;;;;;;;15.64;68.94;101404.13;2623321;36;20025;31
2021/08/18 04:29:37;;;;;;;2.25;0.70;;;;;;;15.62;68.89;101400.66;2622224;36;21249;31
2021/08/18 04:32:07;;;;;;;2.50;0.50;;;;;;;15.59;68.59;101392.84;2640779;36;21241;31
2021/08/18 04:34:37;;;;;;;1.48;0.80;;;;;;;15.53;69.15;101377.25;2621407;36;20023;31
2021/08/18 04:37:05;;;;;;;2.15;0.60;;;;;;;15.63;69.06;101399.78;2622120;36;20061;31
2021/08/18 04:39:33;;;;;;;5.38;0.73;;;;;;;15.65;69.20;101403.19;2622630;36;19973;31
2021/08/18 04:42:01;;;;;;;4.45;0.90;;;;;;;15.71;68.79;101402.13;2603886;47;20081;31
2021/08/18 04:44:31;;;;;;;3.30;0.80;;;;;;;15.62;68.56;101376.97;2623606;36;21133;31
2021/08/18 04:46:59;;;;;;;2.33;0.70;;;;;;;15.64;68.90;101379.56;2603671;47;20029;31
2021/08/18 04:49:29;;;;;;;2.00;0.60;;;;;;;15.56;68.29;101361.34;2603676;47;20023;31
2021/08/18 04:51:59;;;;;;;2.58;0.88;;;;;;;15.74;68.52;101395.00;2603247;47;20041;31
2021/08/18 04:54:29;;;;;;;4.50;0.75;;;;;;;15.75;68.80;101394.09;2622097;36;20061;31
2021/08/18 04:57:00;;;;;;;3.17;0.80;;;;;;;15.75;68.45;101391.44;2622630;36;19957;31
2021/08/18 04:59:31;;;;;;;4.35;1.00;;;;;;;15.56;68.99;101356.06;2606147;47;20022;31
2021/08/18 05:02:01;;;;;;;2.77;0.90;;;;;;;15.73;68.76;101380.13;2604170;54;20022;31
2021/08/18 05:04:30;;;;;;;2.30;0.75;;;;;;;15.68;69.02;101376.78;2605800;54;20767;31
2021/08/18 05:07:00;;;;;;;2.60;0.70;;;;;;;15.79;68.83;101398.34;2605561;54;20023;31
2021/08/18 05:09:28;;;;;;;1.85;0.70;;;;;;;15.67;69.19;101375.06;2603735;54;20082;31
2021/08/18 05:11:57;;;;;;;;;;;;;;;15.83;67.36;101391.22;2603810;47;20077;31
2021/08/18 05:14:27;;;;;;;2.60;0.80;;;;;;;15.79;68.57;101387.81;2605964;54;19949;31
2021/08/18 05:16:55;;;;;;;3.33;1.17;;;;;;;15.66;68.94;101378.63;2604656;54;20060;31
2021/08/18 05:19:25;;;;;;;2.67;0.85;;;;;;;15.79;68.94;101390.44;2610986;54;20078;31
2021/08/18 05:21:55;;;;;;;3.63;0.90;;;;;;;15.63;68.78;101368.19;2604372;54;20048;31
2021/08/18 05:24:23;;;;;;;3.42;0.93;;;;;;;15.71;69.25;101374.06;2606378;46;20022;31
2021/08/18 05:26:53;;;;;;;1.75;0.60;;;;;;;15.60;69.25;101352.44;2605135;54;20066;31
2021/08/18 05:29:23;;;;;;;2.00;0.55;;;;;;;15.69;69.33;101370.59;2605201;46;20045;31
2021/08/18 05:31:51;;;;;;;1.75;0.50;;;;;;;15.72;69.29;101380.19;2604549;54;20038;31
2021/08/18 05:34:19;;;;;;;2.40;0.77;;;;;;;15.64;69.33;101369.91;2606265;54;20030;31
2021/08/18 05:36:49;;;;;;;2.88;1.00;;;;;;;15.74;69.26;101381.84;2604378;54;20727;31
2021/08/18 05:39:17;;;;;;;3.58;1.10;;;;;;;15.70;69.50;101369.69;2611732;46;20046;31
2021/08/18 05:41:45;;;;;;;4.40;0.82;;;;;;;15.71;69.44;101371.44;2605004;54;20034;31
2021/08/18 05:44:15;;;;;;;3.95;1.23;;;;;;;15.80;69.42;101386.91;2609622;46;20977;31
2021/08/18 05:46:46;;;;;;;3.90;0.88;;;;;;;15.79;68.68;101387.81;2604967;47;20026;31
2021/08/18 05:49:22;;;;;;;4.85;0.90;;;;;;;15.79;68.90;101385.19;2606308;46;20074;31
2021/08/18 05:51:51;;;;;;;2.80;1.13;;;;;;;15.67;69.34;101363.69;2604761;54;20903;31
2021/08/18 05:54:21;;;;;;;4.03;0.98;;;;;;;15.71;69.03;101370.53;2604532;46;21197;31
2021/08/18 05:56:52;;;;;;;3.92;1.00;;;;;;;15.73;69.25;101369.59;2605342;54;20023;31
2021/08/18 05:59:20;;;;;;;4.75;0.90;;;;;;;15.76;69.38;101369.50;2604349;54;20965;31
2021/08/18 06:01:48;;;;;;;3.45;1.20;;;;;;;15.75;69.63;101367.75;2604093;54;20046;31
2021/08/18 06:04:18;;;;;;;4.05;1.00;;;;;;;15.74;69.50;101358.13;2678798;36;20768;31
2021/08/18 06:06:48;;;;;;;5.40;1.50;;;;;;;15.78;69.59;101367.66;2626289;36;20065;31
2021/08/18 06:09:18;;;;;;;5.55;1.85;;;;;;;15.79;69.34;101366.75;2622756;36;20034;31
2021/08/18 06:11:47;;;;;;;6.15;1.77;;;;;;;15.82;69.45;101377.19;2623113;36;20046;31
2021/08/18 06:14:17;;;;;;;4.13;1.30;;;;;;;15.83;69.60;101376.28;2605468;46;20018;31
2021/08/18 06:16:45;;;;;;;5.35;1.50;;;;;;;15.69;69.59;101351.31;2628831;36;20824;31
2021/08/18 06:19:16;;;;;;;2.55;0.80;;;;;;;15.75;69.35;101361.63;2622920;36;20038;31
2021/08/18 06:21:46;;;;;;;2.35;0.95;;;;;;;15.79;69.57;101379.91;2631117;36;20029;31
2021/08/18 06:24:27;;;;;;;1.75;1.00;;;;;;;15.90;69.42;101392.72;2623169;36;20033;31
2021/08/18 06:26:57;;;;;;;2.85;1.00;;;;;;;15.87;69.52;101387.56;2622694;36;20980;31
2021/08/18 06:29:31;;;;;;;6.28;1.75;;;;;;;15.75;69.72;101367.75;2604069;54;20772;31
2021/08/18 06:32:03;;;;;;;5.53;1.40;;;;;;;15.91;69.69;101389.16;2623386;36;20050;31
2021/08/18 06:34:34;;;;;;;4.63;1.38;;;;;;;15.89;69.95;101375.19;2623273;36;20026;31
2021/08/18 06:37:03;;;;;;;4.65;1.40;;;;;;;15.81;70.47;101372.84;2623112;36;20085;31
2021/08/18 06:39:40;;;;;;;5.50;1.45;;;;;;;15.91;69.88;101377.78;2622617;36;20893;31
2021/08/18 06:42:10;;;;;;;4.53;1.42;;;;;;;15.88;69.95;101377.91;2605959;54;20086;31
2021/08/18 06:44:39;;;;;;;3.30;1.10;;;;;;;15.90;70.79;101387.44;2612171;54;20062;31
2021/08/18 06:47:09;;;;;;;3.40;1.20;;;;;;;15.91;70.99;101380.41;2608391;46;20136;31
2021/08/18 06:49:37;;;;;;;7.85;2.00;;;;;;;15.73;70.50;101348.53;2608979;54;20931;31
2021/08/18 06:52:08;;;;;;;4.55;1.45;;;;;;;15.88;70.62;101373.47;2604175;54;20052;31
2021/08/18 06:54:35;;;;;;;3.65;1.40;;;;;;;15.92;71.14;101384.78;2623135;36;20022;31
2021/08/18 06:57:03;;;;;;;;;;;;;;;15.97;68.76;101388.97;2626245;36;20019;31
2021/08/18 06:59:33;;;;;;;4.43;1.20;;;;;;;15.87;70.50;101376.19;2623510;36;19934;31
2021/08/18 07:02:01;;;;;;;4.63;1.35;;;;;;;15.88;71.00;101372.63;2622869;36;20169;31
2021/08/18 07:04:32;;;;;;;4.93;1.35;;;;;;;15.81;71.33;101351.78;2606146;54;20067;31
2021/08/18 07:07:00;;;;;;;4.90;1.08;;;;;;;15.76;71.62;101352.81;2604063;54;20022;31
2021/08/18 07:09:30;;;;;;;3.35;1.00;;;;;;;15.77;71.44;101349.28;2699535;36;20809;31
2021/08/18 07:11:58;;;;;;;6.18;1.20;;;;;;;15.87;71.95;101377.03;2604188;46;20026;31
2021/08/18 07:14:26;;;;;;;3.42;1.13;;;;;;;15.79;72.13;101364.13;2603820;46;20058;31
2021/08/18 07:19:26;;;;;;;2.55;1.00;;;;;;;15.83;72.32;101365.75;2603815;54;20217;31
2021/08/18 07:21:56;;;;;;;3.78;1.10;;;;;;;15.81;72.34;101357.03;2623062;36;20022;31
2021/08/18 07:24:26;;;;;;;5.50;1.30;;;;;;;15.95;72.04;101379.41;2622447;36;20022;31
2021/08/18 07:26:56;;;;;;;3.95;1.00;;;;;;;16.00;71.80;101374.81;2622696;36;20029;31
2021/08/18 07:29:26;;;;;;;5.45;1.50;;;;;;;16.05;72.01;101378.16;2624150;36;20954;31
2021/08/18 07:31:56;;;;;;;5.15;1.17;;;;;;;15.90;71.89;101350.56;2624291;36;20066;31
2021/08/18 07:34:26;;;;;;;3.90;1.00;;;;;;;16.05;72.14;101365.00;2623089;36;20139;31
2021/08/18 07:39:38;;;;;;;3.60;1.30;;;;;;;16.04;72.13;101347.47;2647975;53;20404;31
2021/08/18 07:42:08;;;;;;;4.32;1.17;;;;;;;16.16;71.73;101357.56;2608310;54;20026;31
2021/08/18 07:44:36;;;;;;;5.43;1.50;;;;;;;16.23;71.69;101367.00;2627412;36;20018;31
2021/08/18 07:47:06;;;;;;;3.37;1.20;;;;;;;16.23;71.61;101353.81;2614194;46;20069;31
2021/08/18 07:49:36;;;;;;;3.65;1.05;;;;;;;16.28;71.01;101356.28;2629666;36;21265;31
2021/08/18 07:52:07;;;;;;;5.45;1.40;;;;;;;16.46;71.26;101381.09;2608965;46;20026;31
2021/08/18 07:54:34;;;;;;;4.20;1.15;;;;;;;16.42;71.31;101358.41;2627139;36;20033;31
2021/08/18 07:57:02;;;;;;;3.33;1.15;;;;;;;16.39;71.53;101348.00;2608538;54;20030;31
2021/08/18 07:59:30;;;;;;;3.72;1.08;;;;;;;16.51;70.98;101363.34;2612857;54;20022;31
2021/08/18 08:01:59;;;;;;;3.38;1.40;;;;;;;16.54;71.06;101352.69;2609224;46;20022;31
2021/08/18 08:04:30;;;;;;;2.55;0.90;;;;;;;16.72;70.75;101361.72;2614082;46;20053;31
2021/08/18 08:07:00;;;;;;;4.05;0.80;;;;;;;16.72;70.46;101348.53;2629035;36;19931;31
2021/08/18 08:09:28;;;;;;;2.95;1.00;;;;;;;16.84;70.65;101366.53;2627298;36;20074;31
2021/08/18 08:11:58;;;;;;;3.03;1.00;;;;;;;16.82;70.45;101337.56;2627206;36;20030;31
2021/08/18 08:14:26;;;;;;;3.65;0.90;;;;;;;17.02;70.55;101354.41;2608286;54;20885;31
2021/08/18 08:16:56;;;;;;;;;;;;;;;17.15;69.56;101360.94;2614914;46;20026;31
2021/08/18 08:19:26;;;;;;;2.95;1.00;;;;;;;17.07;69.85;101336.63;2627710;36;19934;31
2021/08/18 08:21:56;;;;;;;2.03;0.80;;;;;;;17.26;70.21;101348.16;2608674;46;20802;31
2021/08/18 08:24:27;;;;;;;1.58;0.50;;;;;;;17.40;69.42;101346.75;2627618;36;20026;31
2021/08/18 08:26:54;;;;;;;1.93;0.60;;;;;;;17.47;68.97;101350.84;2635212;36;20053;31
2021/08/18 08:29:22;;;;;;;;;;;;;;;17.68;68.89;101351.75;2609998;46;20096;31
2021/08/18 08:31:52;;;;;;;1.20;0.45;;;;;;;17.71;68.17;101349.84;2629144;36;20644;-77
2021/08/18 08:34:22;;;;;;;2.33;0.70;;;;;;;17.84;68.23;101358.13;2625958;54;20033;31
2021/08/18 08:36:50;;;;;;;1.80;0.70;;;;;;;17.75;67.71;101324.19;2637473;36;20034;31
2021/08/18 08:39:17;;;;;;;1.98;0.50;;;;;;;17.95;67.66;101347.13;2634845;46;20042;-78
2021/08/18 08:41:48;;;;;;;3.10;0.50;;;;;;;18.04;67.63;101349.34;2645647;36;20019;31
2021/08/18 08:44:20;;;;;;;1.40;0.50;;;;;;;18.14;67.86;101348.03;2642626;36;21001;31
2021/08/18 08:46:50;;;;;;;1.30;0.40;;;;;;;18.21;67.43;101354.78;2621712;46;20010;31
2021/08/18 08:49:21;;;;;;;1.33;0.57;;;;;;;18.17;66.76;101317.97;2627944;36;20026;31
2021/08/18 08:51:52;;;;;;;2.15;0.60;;;;;;;18.35;66.36;101339.16;2644568;36;20061;31
2021/08/18 08:54:22;;;;;;;1.50;0.60;;;;;;;18.37;66.47;101341.72;2632974;36;20034;31
2021/08/18 08:56:52;;;;;;;1.87;0.80;;;;;;;18.31;66.91;101324.34;2612830;54;20954;31
2021/08/18 08:59:22;;;;;;;2.17;0.50;;;;;;;18.45;66.87;101336.06;2611995;54;20314;31
2021/08/18 09:02:03;;;;;;;0.95;0.50;;;;;;;18.56;66.67;101329.38;2622367;54;20071;31
2021/08/18 09:04:32;;;;;;;3.60;0.80;;;;;;;18.60;66.34;101343.31;2636179;36;20995;31
2021/08/18 09:07:28;;;;;;;2.33;0.50;;;;;;;18.71;66.27;101338.44;2614910;54;20064;31
2021/08/18 09:10:01;;;;;;;2.37;0.70;;;;;;;18.77;65.82;101340.78;2602821;36;2004260;31
2021/08/18 09:12:39;;;;;;;0.65;0.47;;;;;;;18.85;65.97;101335.97;2608150;54;20790;31
2021/08/18 09:18:02;;;;;;;1.00;0.52;;;;;;;18.92;65.57;101321.56;2630579;36;20026;31
2021/08/18 09:20:38;;;;;;;1.15;0.52;;;;;;;19.04;65.45;101321.88;2649530;36;20030;-78
2021/08/18 09:23:08;;;;;;;1.70;0.60;;;;;;;19.09;64.60;101322.53;2631211;36;20762;31
2021/08/18 09:25:38;;;;;;;0.85;0.45;;;;;;;18.99;64.83;101289.50;2609892;46;20019;31
2021/08/18 09:28:07;;;;;;;1.38;0.52;;;;;;;19.24;64.57;101321.78;2610370;54;19997;31
2021/08/18 09:30:41;;;;;;;2.22;0.60;;;;;;;19.36;64.68;101310.59;2649594;36;20011;-79
2021/08/18 09:35:38;;;;;;;1.88;0.60;;;;;;;19.49;63.90;101304.69;2616015;54;20060;31
2021/08/18 09:40:40;;;;;;;0.90;0.30;;;;;;;19.58;63.94;101314.81;2631176;47;20014;-78
2021/08/18 09:43:16;;;;;;;0.77;0.40;;;;;;;19.64;64.31;101306.59;2649395;36;20038;-79
2021/08/18 09:45:53;;;;;;;0.80;0.40;;;;;;;19.64;63.44;101303.94;2649292;36;20023;-79
2021/08/18 09:48:24;;;;;;;0.88;0.47;;;;;;;19.75;62.88;101309.53;2630937;54;20035;-77
2021/08/18 09:51:05;;;;;;;2.08;0.52;;;;;;;19.81;63.31;101308.34;2649048;36;21110;-78
2021/08/18 09:53:49;;;;;;;1.20;0.40;;;;;;;19.82;63.45;101297.69;2695365;36;20030;-78
2021/08/18 09:56:19;;;;;;;0.73;0.40;;;;;;;19.78;63.23;101296.13;2626124;36;20095;31
2021/08/18 09:58:55;;;;;;;0.98;0.40;;;;;;;19.85;63.37;101296.66;2640926;36;20047;-78
2021/08/18 10:01:26;;;;;;;0.70;0.45;;;;;;;19.83;63.18;101298.56;2639034;36;20033;31
2021/08/18 10:03:53;;;;;;;1.42;0.52;;;;;;;19.82;62.52;101292.41;2630293;51;20043;-79
2021/08/18 10:06:27;;;;;;;1.25;0.50;;;;;;;19.90;63.04;101287.53;2630787;36;22417;-80
2021/08/18 10:08:56;;;;;;;1.05;0.50;;;;;;;19.91;62.49;101291.03;2649144;36;20054;-79
2021/08/18 10:11:26;;;;;;;1.85;0.60;;;;;;;19.93;62.75;101290.03;2652372;36;20527;-80
2021/08/18 10:13:59;;;;;;;0.95;0.40;;;;;;;19.97;62.96;101280.13;2642087;36;20033;-78
2021/08/18 10:16:39;;;;;;;1.15;0.60;;;;;;;20.08;62.58;101290.19;2677053;36;20026;-79
2021/08/18 10:19:15;;;;;;;1.38;0.57;;;;;;;20.10;62.64;101280.34;2630147;54;20015;-78
2021/08/18 10:21:47;;;;;;;1.05;0.47;;;;;;;20.10;62.52;101275.03;2648987;36;20031;-79
2021/08/18 10:24:35;;;;;;;1.30;0.63;;;;;;;20.18;62.54;101283.44;2741487;36;20030;-80
2021/08/18 10:27:06;;;;;;;0.40;0.20;;;;;;;20.12;62.31;101273.13;2642899;36;20938;31
2021/08/18 10:29:39;;;;;;;1.10;0.57;;;;;;;20.11;61.94;101258.19;2619460;47;20093;31
2021/08/18 10:32:12;;;;;;;1.20;0.60;;;;;;;20.17;61.77;101281.72;2626907;36;20022;31
2021/08/18 10:34:45;;;;;;;1.05;0.60;;;;;;;20.12;61.96;101262.53;2642823;36;20026;31
2021/08/18 10:37:15;;;;;;;1.75;0.45;;;;;;;20.23;61.54;101276.09;2641704;36;20049;31
2021/08/18 10:39:53;;;;;;;1.40;0.50;;;;;;;20.27;61.76;101282.06;2629292;36;20051;31
2021/08/18 10:42:37;;;;;;;1.50;0.70;;;;;;;20.28;62.29;101279.38;2626233;36;20039;31
2021/08/18 10:45:18;;;;;;;1.35;0.60;;;;;;;20.33;61.99;101277.31;2625731;36;20285;31
2021/08/18 10:47:46;;;;;;;0.93;0.50;;;;;;;20.23;61.05;101269.94;2626943;36;20027;31
2021/08/18 10:50:23;;;;;;;0.97;0.53;;;;;;;20.30;61.50;101277.47;2612006;54;20957;31
2021/08/18 10:52:57;;;;;;;1.40;0.85;;;;;;;20.21;61.24;101259.41;2684428;36;20251;-79
2021/08/18 10:55:26;;;;;;;0.93;0.40;;;;;;;20.28;60.81;101279.38;2649332;36;20026;-79
2021/08/18 10:58:04;;;;;;;0.75;0.50;;;;;;;20.28;60.67;101274.06;2630770;54;20835;-79
2021/08/18 11:00:34;;;;;;;1.05;0.52;;;;;;;20.30;61.03;101273.97;2626423;36;20049;31
2021/08/18 11:06:08;;;;;;;1.65;0.50;;;;;;;20.16;61.46;101249.03;2630727;54;20042;-78
2021/08/18 11:08:43;;;;;;;0.63;0.50;;;;;;;20.35;60.42;101280.72;2632160;36;20015;-78
2021/08/18 11:11:15;;;;;;;1.05;0.45;;;;;;;20.28;60.91;101263.44;2644651;36;20555;-79
2021/08/18 11:13:47;;;;;;;3.00;0.60;;;;;;;20.36;61.05;101271.81;2630578;54;20014;-79
2021/08/18 11:16:26;;;;;;;1.77;0.50;;;;;;;20.36;60.46;101271.81;2649227;36;20614;-78
2021/08/18 11:21:41;;;;;;;0.50;0.30;;;;;;;20.39;61.59;101266.38;2648478;36;20042;-78
2021/08/18 11:24:11;;;;;;;1.27;0.60;;;;;;;20.38;61.00;101254.03;2648772;36;20017;-79
2021/08/18 11:26:52;;;;;;;0.80;0.38;;;;;;;20.50;61.30;101263.16;2648856;36;20015;-77
2021/08/18 11:29:20;;;;;;;1.40;0.80;;;;;;;20.51;60.78;101259.56;2612191;36;2004240;-79
2021/08/18 11:31:49;;;;;;;1.70;0.70;;;;;;;20.52;60.89;101250.66;2613701;36;2004701;31
2021/08/18 11:34:35;;;;;;;1.08;0.70;;;;;;;20.62;61.69;101253.66;2630451;54;20022;-79
2021/08/18 11:37:12;;;;;;;1.33;0.60;;;;;;;20.66;61.29;101249.88;2648523;36;20022;-79
2021/08/18 11:39:45;;;;;;;1.53;0.70;;;;;;;20.73;60.98;101253.88;2633623;39;20914;-79
2021/08/18 11:42:18;;;;;;;1.80;0.85;;;;;;;20.82;61.12;101241.91;2661310;36;20346;-80
2021/08/18 11:47:29;;;;;;;1.10;0.65;;;;;;;21.03;59.87;101240.66;2630632;47;20022;-79
2021/08/18 11:50:02;;;;;;;3.13;0.82;;;;;;;21.12;60.33;101233.97;2648549;36;20022;-78
2021/08/18 11:52:29;;;;;;;0.77;0.55;;;;;;;21.12;59.36;101226.00;2657751;36;20041;-79
2021/08/18 11:55:03;;;;;;;2.00;0.95;;;;;;;21.36;60.21;101243.19;2648656;36;20011;-78
2021/08/18 11:57:31;;;;;;;2.15;0.68;;;;;;;21.37;59.34;101228.97;2629791;54;20038;-79
2021/08/18 11:59:58;;;;;;;;;;;;;;;21.60;61.12;101240.03;2630337;54;20067;-80
2021/08/18 12:02:28;;;;;;;1.88;0.80;;;;;;;21.60;58.69;101240.03;2630027;54;19950;-79
2021/08/18 12:05:00;;;;;;;1.58;0.80;;;;;;;21.63;58.46;101242.50;2630283;54;20034;-78
2021/08/18 12:07:30;;;;;;;1.23;0.73;;;;;;;21.60;58.45;101245.34;2631940;39;20508;-79
2021/08/18 12:10:26;;;;;;;1.65;1.00;;;;;;;21.57;58.97;101234.91;2701938;36;20619;-78
2021/08/18 12:13:08;;;;;;;1.67;0.80;;;;;;;21.52;59.43;101239.63;2593560;54;2004832;-78
2021/08/18 12:15:46;;;;;;;1.52;0.82;;;;;;;21.43;58.50;101239.22;2649998;36;20634;-78
2021/08/18 12:18:30;;;;;;;2.33;1.10;;;;;;;21.36;59.62;101235.22;2648167;36;20050;-78
2021/08/18 12:21:19;;;;;;;2.42;0.93;;;;;;;21.41;59.23;101251.75;2637112;36;20032;-78